createdAt,value
2023-03-28T00:01:06.460Z,100.00
2023-03-28T00:03:36.460Z,100.00
2023-03-28T00:06:05.581Z,100.00
2023-03-28T00:08:32.582Z,100.00
2023-03-28T00:11:22.431Z,100.00
2023-03-28T00:13:53.644Z,100.00
2023-03-28T00:16:20.269Z,100.00
2023-03-28T00:18:46.960Z,100.00
2023-03-28T00:21:23.499Z,100.00
2023-03-28T00:23:52.688Z,100.00
2023-03-28T00:26:20.436Z,100.00
2023-03-28T00:28:47.647Z,100.00
2023-03-28T00:31:14.889Z,100.00
2023-03-28T00:33:42.126Z,100.00
2023-03-28T00:36:10.418Z,100.00
2023-03-28T00:38:38.645Z,100.00
2023-03-28T00:41:05.949Z,100.00
2023-03-28T00:43:53.172Z,100.00
2023-03-28T00:46:36.560Z,100.00
2023-03-28T00:49:05.898Z,100.00
2023-03-28T00:51:35.941Z,100.00
2023-03-28T00:54:03.113Z,100.00
2023-03-28T00:56:32.237Z,100.00
2023-03-28T00:59:01.931Z,100.00
2023-03-28T01:01:28.506Z,100.00
2023-03-28T01:04:03.228Z,100.00
2023-03-28T01:06:34.862Z,100.00
2023-03-28T01:09:04.650Z,100.00
2023-03-28T01:11:32.401Z,100.00
2023-03-28T01:14:00.732Z,100.00
2023-03-28T01:16:30.851Z,100.00
2023-03-28T01:19:02.150Z,100.00
2023-03-28T01:21:31.916Z,100.00
2023-03-28T01:24:11.284Z,100.00
2023-03-28T01:26:48.033Z,100.00
2023-03-28T01:29:24.509Z,100.00
2023-03-28T01:31:51.048Z,100.00
2023-03-28T01:34:36.250Z,100.00
2023-03-28T01:37:05.777Z,100.00
2023-03-28T01:39:46.944Z,100.00
2023-03-28T01:42:25.879Z,100.00
2023-03-28T01:44:52.398Z,100.00
2023-03-28T01:47:38.671Z,100.00
2023-03-28T01:50:11.273Z,100.00
2023-03-28T01:52:47.262Z,100.00
2023-03-28T01:55:30.209Z,100.00
2023-03-28T01:58:06.775Z,100.00
2023-03-28T02:00:38.048Z,100.00
2023-03-28T02:03:11.831Z,100.00
2023-03-28T02:05:39.340Z,100.00
2023-03-28T02:08:10.724Z,100.00
2023-03-28T02:10:39.477Z,100.00
2023-03-28T02:13:09.580Z,100.00
2023-03-28T02:15:36.125Z,100.00
2023-03-28T02:18:06.997Z,100.00
2023-03-28T02:20:35.104Z,100.00
2023-03-28T02:23:01.636Z,100.00
2023-03-28T02:25:29.493Z,100.00
2023-03-28T02:27:57.626Z,100.00
2023-03-28T02:30:24.300Z,100.00
2023-03-28T02:32:51.674Z,100.00
2023-03-28T02:35:24.239Z,100.00
2023-03-28T02:38:01.722Z,100.00
2023-03-28T02:40:31.467Z,100.00
2023-03-28T02:42:59.590Z,100.00
2023-03-28T02:45:37.767Z,100.00
2023-03-28T02:48:07.529Z,100.00
2023-03-28T02:50:36.450Z,100.00
2023-03-28T02:53:15.789Z,100.00
2023-03-28T02:56:06.034Z,100.00
2023-03-28T02:58:40.247Z,100.00
2023-03-28T03:01:07.059Z,100.00
2023-03-28T03:03:36.506Z,100.00
2023-03-28T03:06:05.976Z,100.00
2023-03-28T03:08:32.942Z,100.00
2023-03-28T03:10:59.729Z,100.00
2023-03-28T03:13:26.718Z,100.00
2023-03-28T03:15:56.370Z,100.00
2023-03-28T03:18:23.322Z,100.00
2023-03-28T03:20:50.456Z,100.00
2023-03-28T03:23:17.655Z,100.00
2023-03-28T03:25:45.277Z,100.00
2023-03-28T03:28:12.083Z,100.00
2023-03-28T03:30:38.670Z,100.00
2023-03-28T03:33:05.966Z,100.00
2023-03-28T03:35:35.670Z,100.00
2023-03-28T03:38:03.864Z,100.00
2023-03-28T03:40:30.448Z,100.00
2023-03-28T03:42:57.010Z,100.00
2023-03-28T03:45:23.581Z,100.00
2023-03-28T03:47:50.277Z,100.00
2023-03-28T03:50:16.899Z,100.00
2023-03-28T03:52:43.485Z,100.00
2023-03-28T03:55:10.198Z,100.00
2023-03-28T03:57:36.912Z,100.00
2023-03-28T04:00:11.379Z,100.00
2023-03-28T04:02:38.842Z,100.00
2023-03-28T04:05:07.213Z,100.00
2023-03-28T04:07:33.727Z,100.00
2023-03-28T04:10:00.494Z,100.00
2023-03-28T04:12:27.072Z,100.00
2023-03-28T04:14:53.620Z,100.00
2023-03-28T04:17:21.500Z,100.00
2023-03-28T04:19:49.757Z,100.00
2023-03-28T04:22:18.331Z,100.00
2023-03-28T04:24:45.907Z,100.00
2023-03-28T04:27:12.430Z,100.00
2023-03-28T04:29:39.447Z,100.00
2023-03-28T04:32:06.719Z,100.00
2023-03-28T04:34:33.995Z,100.00
2023-03-28T04:37:02.117Z,100.00
2023-03-28T04:39:33.935Z,100.00
2023-03-28T04:42:02.119Z,100.00
2023-03-28T04:44:32.500Z,100.00
2023-03-28T04:47:09.159Z,100.00
2023-03-28T04:49:35.682Z,100.00
2023-03-28T04:52:02.274Z,100.00
2023-03-28T04:54:29.010Z,100.00
2023-03-28T04:56:55.761Z,100.00
2023-03-28T04:59:22.282Z,100.00
2023-03-28T05:01:51.729Z,100.00
2023-03-28T05:04:19.070Z,100.00
2023-03-28T05:06:46.438Z,100.00
2023-03-28T05:09:13.685Z,100.00
2023-03-28T05:11:40.772Z,100.00
2023-03-28T05:14:07.383Z,100.00
2023-03-28T05:16:34.396Z,100.00
2023-03-28T05:19:01.673Z,100.00
2023-03-28T05:21:28.596Z,100.00
2023-03-28T05:23:55.697Z,100.00
2023-03-28T05:26:22.294Z,100.00
2023-03-28T05:28:48.957Z,100.00
2023-03-28T05:31:17.492Z,80.88
2023-03-28T05:33:44.186Z,67.62
2023-03-28T05:36:11.086Z,61.09
2023-03-28T05:38:37.704Z,65.96
2023-03-28T05:41:04.544Z,61.02
2023-03-28T05:43:31.136Z,62.02
2023-03-28T05:45:57.817Z,55.47
2023-03-28T05:48:24.408Z,50.95
2023-03-28T05:50:51.156Z,53.01
2023-03-28T05:53:17.849Z,54.22
2023-03-28T05:55:44.375Z,57.36
2023-03-28T05:58:10.860Z,64.74
2023-03-28T06:00:37.534Z,55.43
2023-03-28T06:03:07.476Z,58.57
2023-03-28T06:05:34.562Z,52.93
2023-03-28T06:08:01.872Z,55.76
2023-03-28T06:10:28.431Z,60.52
2023-03-28T06:12:55.411Z,60.08
2023-03-28T06:15:22.052Z,59.10
2023-03-28T06:17:51.886Z,63.37
2023-03-28T06:20:18.499Z,61.36
2023-03-28T06:22:45.013Z,57.84
2023-03-28T06:25:11.527Z,56.39
2023-03-28T06:27:38.135Z,52.61
2023-03-28T06:30:05.151Z,55.95
2023-03-28T06:32:31.907Z,54.98
2023-03-28T06:34:58.543Z,49.16
2023-03-28T06:37:25.238Z,49.41
2023-03-28T06:39:53.187Z,49.24
2023-03-28T06:42:20.328Z,45.76
2023-03-28T06:44:46.913Z,45.88
2023-03-28T06:47:13.493Z,47.55
2023-03-28T06:49:40.579Z,47.18
2023-03-28T06:52:08.047Z,47.92
2023-03-28T06:54:34.700Z,44.50
2023-03-28T06:57:01.311Z,48.16
2023-03-28T06:59:27.892Z,48.85
2023-03-28T07:01:54.515Z,46.86
2023-03-28T07:04:21.342Z,50.13
2023-03-28T07:06:48.964Z,50.58
2023-03-28T07:09:16.012Z,50.36
2023-03-28T07:11:42.532Z,48.91
2023-03-28T07:14:09.178Z,49.90
2023-03-28T07:16:36.031Z,46.03
2023-03-28T07:19:02.622Z,42.45
2023-03-28T07:21:29.184Z,42.66
2023-03-28T07:23:55.869Z,41.46
2023-03-28T07:26:22.360Z,40.84
2023-03-28T07:28:49.553Z,38.40
2023-03-28T07:31:16.870Z,43.11
2023-03-28T07:33:43.498Z,40.13
2023-03-28T07:36:11.777Z,37.95
2023-03-28T07:38:38.475Z,41.47
2023-03-28T07:41:05.538Z,42.57
2023-03-28T07:43:32.177Z,42.82
2023-03-28T07:46:02.509Z,43.11
2023-03-28T07:48:29.365Z,40.48
2023-03-28T07:50:55.916Z,38.72
2023-03-28T07:53:22.406Z,42.72
2023-03-28T07:55:55.058Z,46.59
2023-03-28T07:58:22.038Z,44.03
2023-03-28T08:01:03.560Z,44.03
2023-03-28T08:03:30.224Z,47.35
2023-03-28T08:05:57.808Z,44.07
2023-03-28T08:08:24.377Z,45.69
2023-03-28T08:10:51.532Z,42.36
2023-03-28T08:13:21.003Z,46.56
2023-03-28T08:15:53.686Z,45.88
2023-03-28T08:18:21.643Z,50.88
2023-03-28T08:20:48.514Z,47.89
2023-03-28T08:23:15.346Z,50.99
2023-03-28T08:25:42.464Z,50.01
2023-03-28T08:28:09.813Z,47.47
2023-03-28T08:30:36.427Z,45.17
2023-03-28T08:33:04.732Z,43.16
2023-03-28T08:35:31.797Z,42.43
2023-03-28T08:37:59.434Z,41.47
2023-03-28T08:40:28.165Z,41.10
2023-03-28T08:43:06.444Z,41.51
2023-03-28T08:45:42.132Z,39.59
2023-03-28T08:48:11.604Z,39.23
2023-03-28T08:50:53.589Z,41.07
2023-03-28T08:53:30.537Z,40.30
2023-03-28T08:55:58.094Z,43.22
2023-03-28T08:58:27.158Z,39.74
2023-03-28T09:00:53.978Z,40.03
2023-03-28T09:03:22.996Z,40.87
2023-03-28T09:05:50.156Z,39.97
2023-03-28T09:08:24.476Z,42.78
2023-03-28T09:11:09.149Z,40.57
2023-03-28T09:13:47.910Z,40.30
2023-03-28T09:16:23.513Z,39.98
2023-03-28T09:19:11.320Z,39.35
2023-03-28T09:21:37.842Z,39.45
2023-03-28T09:24:17.441Z,40.43
2023-03-28T09:26:47.666Z,38.37
2023-03-28T09:29:16.355Z,39.43
2023-03-28T09:31:48.142Z,40.77
2023-03-28T09:34:23.332Z,37.00
2023-03-28T09:39:30.275Z,37.91
2023-03-28T09:42:00.513Z,38.42
2023-03-28T09:44:30.677Z,42.29
2023-03-28T09:46:59.766Z,43.12
2023-03-28T09:49:26.703Z,41.31
2023-03-28T09:51:54.921Z,41.53
2023-03-28T09:54:28.804Z,41.86
2023-03-28T09:57:00.092Z,43.05
2023-03-28T09:59:30.526Z,43.62
2023-03-28T10:01:57.843Z,41.82
2023-03-28T10:04:27.259Z,43.84
2023-03-28T10:06:54.887Z,42.31
2023-03-28T10:09:23.300Z,40.64
2023-03-28T10:11:57.583Z,41.81
2023-03-28T10:14:43.255Z,40.54
2023-03-28T10:17:18.038Z,43.13
2023-03-28T10:19:45.637Z,38.79
2023-03-28T10:22:14.252Z,40.22
2023-03-28T10:24:41.263Z,42.20
2023-03-28T10:27:19.002Z,41.48
2023-03-28T10:29:46.304Z,40.43
2023-03-28T10:32:24.973Z,40.67
2023-03-28T10:35:02.226Z,38.63
2023-03-28T10:37:30.657Z,42.86
2023-03-28T10:40:16.385Z,42.85
2023-03-28T10:42:45.007Z,42.06
2023-03-28T10:45:30.432Z,42.09
2023-03-28T10:47:59.173Z,41.50
2023-03-28T10:50:31.072Z,43.92
2023-03-28T10:53:10.839Z,43.14
2023-03-28T10:55:40.672Z,44.24
2023-03-28T10:58:13.363Z,44.49
2023-03-28T11:00:46.683Z,44.43
2023-03-28T11:03:31.893Z,44.11
2023-03-28T11:06:09.942Z,44.69
2023-03-28T11:09:00.375Z,43.14
2023-03-28T11:11:27.333Z,43.96
2023-03-28T11:14:02.949Z,41.75
2023-03-28T11:16:38.601Z,43.40
2023-03-28T11:19:16.364Z,41.70
2023-03-28T11:22:11.242Z,43.17
2023-03-28T11:24:46.929Z,40.56
2023-03-28T11:27:33.671Z,44.06
2023-03-28T11:30:12.087Z,43.46
2023-03-28T11:32:43.331Z,42.01
2023-03-28T11:35:27.262Z,44.49
2023-03-28T11:38:11.742Z,44.86
2023-03-28T11:40:50.906Z,44.90
2023-03-28T11:43:25.545Z,41.00
2023-03-28T11:45:53.551Z,42.13
2023-03-28T11:48:33.571Z,42.61
2023-03-28T11:51:06.624Z,42.89
2023-03-28T11:53:40.055Z,44.94
2023-03-28T11:56:06.972Z,42.26
2023-03-28T11:58:36.268Z,38.78
2023-03-28T12:01:06.345Z,41.14
2023-03-28T12:03:34.452Z,41.47
2023-03-28T12:06:10.363Z,40.88
2023-03-28T12:08:51.942Z,41.35
2023-03-28T12:11:25.686Z,43.70
2023-03-28T12:14:09.012Z,42.44
2023-03-28T12:16:43.028Z,42.44
2023-03-28T12:19:15.069Z,43.54
2023-03-28T12:21:47.191Z,43.94
2023-03-28T12:24:25.763Z,42.48
2023-03-28T12:26:54.764Z,42.51
2023-03-28T12:29:22.740Z,42.07
2023-03-28T12:31:53.364Z,41.72
2023-03-28T12:34:32.066Z,41.47
2023-03-28T12:37:11.983Z,40.55
2023-03-28T12:39:54.881Z,41.03
2023-03-28T12:42:23.624Z,40.60
2023-03-28T12:45:01.081Z,40.03
2023-03-28T12:47:36.681Z,40.91
2023-03-28T12:50:24.143Z,39.24
2023-03-28T12:52:52.312Z,40.04
2023-03-28T12:55:24.929Z,40.14
2023-03-28T12:57:53.398Z,42.12
2023-03-28T13:00:32.207Z,41.23
2023-03-28T13:03:07.877Z,41.47
2023-03-28T13:05:46.458Z,40.92
2023-03-28T13:08:21.740Z,41.55
2023-03-28T13:11:06.643Z,41.29
2023-03-28T13:13:45.354Z,41.57
2023-03-28T13:16:17.160Z,42.19
2023-03-28T13:18:48.018Z,43.45
2023-03-28T13:21:34.546Z,42.95
2023-03-28T13:24:01.148Z,42.37
2023-03-28T13:26:47.615Z,43.38
2023-03-28T13:29:14.222Z,43.76
2023-03-28T13:31:42.851Z,42.33
2023-03-28T13:34:17.996Z,42.01
2023-03-28T13:36:50.945Z,42.36
2023-03-28T13:39:25.238Z,42.63
2023-03-28T13:41:52.382Z,42.36
2023-03-28T13:44:20.808Z,43.00
2023-03-28T13:46:48.780Z,44.07
2023-03-28T13:49:19.901Z,43.51
2023-03-28T13:51:46.436Z,44.78
2023-03-28T13:54:13.606Z,44.06
2023-03-28T13:56:44.405Z,43.79
2023-03-28T13:59:18.283Z,43.63
2023-03-28T14:01:47.332Z,44.83
2023-03-28T14:04:21.834Z,46.13
2023-03-28T14:06:49.351Z,44.45
2023-03-28T14:09:19.790Z,45.43
2023-03-28T14:11:46.897Z,45.77
2023-03-28T14:14:13.446Z,45.43
2023-03-28T14:16:42.069Z,45.45
2023-03-28T14:19:09.550Z,46.13
2023-03-28T14:21:36.166Z,46.39
2023-03-28T14:24:04.750Z,45.07
2023-03-28T14:26:34.148Z,46.96
2023-03-28T14:29:03.092Z,45.37
2023-03-28T14:31:35.008Z,46.35
2023-03-28T14:34:13.327Z,46.74
2023-03-28T14:36:58.748Z,45.44
2023-03-28T14:39:26.757Z,46.20
2023-03-28T14:41:54.048Z,45.54
2023-03-28T14:44:21.497Z,46.34
2023-03-28T14:46:49.610Z,47.06
2023-03-28T14:49:21.496Z,46.75
2023-03-28T14:51:53.909Z,46.27
2023-03-28T14:54:37.778Z,46.87
2023-03-28T14:57:05.293Z,47.25
2023-03-28T14:59:37.001Z,48.19
2023-03-28T15:02:04.772Z,48.48
2023-03-28T15:04:32.225Z,49.15
2023-03-28T15:06:59.019Z,48.39
2023-03-28T15:09:30.239Z,48.39
2023-03-28T15:11:57.379Z,48.23
2023-03-28T15:14:30.165Z,49.90
2023-03-28T15:16:57.179Z,50.19
2023-03-28T15:19:32.186Z,50.21
2023-03-28T15:22:04.446Z,49.89
2023-03-28T15:24:31.539Z,49.27
2023-03-28T15:27:01.602Z,48.76
2023-03-28T15:29:54.744Z,48.95
2023-03-28T15:32:21.463Z,50.59
2023-03-28T15:34:54.498Z,49.68
2023-03-28T15:37:22.737Z,47.98
2023-03-28T15:39:53.172Z,48.20
2023-03-28T15:42:19.822Z,49.18
2023-03-28T15:44:52.320Z,48.13
2023-03-28T15:47:22.526Z,48.75
2023-03-28T15:49:49.251Z,48.46
2023-03-28T15:52:18.447Z,48.50
2023-03-28T15:54:48.762Z,49.22
2023-03-28T15:57:17.657Z,48.90
2023-03-28T15:59:48.708Z,49.43
2023-03-28T16:02:24.549Z,50.59
2023-03-28T16:05:09.726Z,50.84
2023-03-28T16:07:48.921Z,52.55
2023-03-28T16:10:25.745Z,54.13
2023-03-28T16:12:52.438Z,55.07
2023-03-28T16:15:19.599Z,55.17
2023-03-28T16:17:47.463Z,57.53
2023-03-28T16:20:15.874Z,58.62
2023-03-28T16:22:42.796Z,65.77
2023-03-28T16:25:09.497Z,68.36
2023-03-28T16:27:37.919Z,68.71
2023-03-28T16:30:07.814Z,73.60
2023-03-28T16:32:34.436Z,77.72
2023-03-28T16:35:01.042Z,72.88
2023-03-28T16:37:27.539Z,72.03
2023-03-28T16:39:54.097Z,66.80
2023-03-28T16:42:21.058Z,67.15
2023-03-28T16:44:47.652Z,66.92
2023-03-28T16:47:15.675Z,65.58
2023-03-28T16:49:42.272Z,72.10
2023-03-28T16:52:08.884Z,59.85
2023-03-28T16:54:35.784Z,62.33
2023-03-28T16:57:02.677Z,60.53
2023-03-28T16:59:29.301Z,59.83
2023-03-28T17:01:56.022Z,55.92
2023-03-28T17:04:22.677Z,56.23
2023-03-28T17:06:49.270Z,57.64
2023-03-28T17:09:16.065Z,56.36
2023-03-28T17:11:43.011Z,55.10
2023-03-28T17:14:09.684Z,55.15
2023-03-28T17:16:40.345Z,55.73
2023-03-28T17:19:07.786Z,54.44
2023-03-28T17:21:35.040Z,53.80
2023-03-28T17:24:02.141Z,54.88
2023-03-28T17:26:28.736Z,54.94
2023-03-28T17:28:58.320Z,56.44
2023-03-28T17:31:25.770Z,56.27
2023-03-28T17:33:52.549Z,55.31
2023-03-28T17:36:23.572Z,54.43
2023-03-28T17:38:51.999Z,55.55
2023-03-28T17:41:20.175Z,55.58
2023-03-28T17:43:46.795Z,55.12
2023-03-28T17:46:13.473Z,55.67
2023-03-28T17:48:40.794Z,56.10
2023-03-28T17:51:09.279Z,56.34
2023-03-28T17:53:36.328Z,56.83
2023-03-28T17:56:03.295Z,55.40
2023-03-28T17:58:30.525Z,56.06
2023-03-28T18:00:57.073Z,55.31
2023-03-28T18:03:24.305Z,53.96
2023-03-28T18:05:53.915Z,53.69
2023-03-28T18:08:23.971Z,53.22
2023-03-28T18:10:50.685Z,52.53
2023-03-28T18:13:17.429Z,50.93
2023-03-28T18:15:44.028Z,51.52
2023-03-28T18:18:12.882Z,51.36
2023-03-28T18:20:41.976Z,50.55
2023-03-28T18:23:08.514Z,51.18
2023-03-28T18:25:38.427Z,50.89
2023-03-28T18:28:05.519Z,49.76
2023-03-28T18:30:32.097Z,50.80
2023-03-28T18:32:59.043Z,50.50
2023-03-28T18:35:27.108Z,50.20
2023-03-28T18:37:53.792Z,50.77
2023-03-28T18:40:20.860Z,50.46
2023-03-28T18:42:47.466Z,51.07
2023-03-28T18:45:14.058Z,50.62
2023-03-28T18:47:41.416Z,50.96
2023-03-28T18:50:10.493Z,49.92
2023-03-28T18:52:37.567Z,49.25
2023-03-28T18:55:08.049Z,48.97
2023-03-28T18:57:35.049Z,49.21
2023-03-28T19:00:02.137Z,49.88
2023-03-28T19:02:29.094Z,50.15
2023-03-28T19:04:56.308Z,47.99
2023-03-28T19:07:23.036Z,49.14
2023-03-28T19:09:50.170Z,50.42
2023-03-28T19:12:17.041Z,49.79
2023-03-28T19:14:43.659Z,49.25
2023-03-28T19:17:10.177Z,49.00
2023-03-28T19:19:37.661Z,50.38
2023-03-28T19:22:06.442Z,49.00
2023-03-28T19:24:33.566Z,49.50
2023-03-28T19:27:01.000Z,49.11
2023-03-28T19:29:30.226Z,50.10
2023-03-28T19:31:56.870Z,48.50
2023-03-28T19:34:23.396Z,49.31
2023-03-28T19:36:50.072Z,49.56
2023-03-28T19:39:16.795Z,49.13
2023-03-28T19:41:43.310Z,49.23
2023-03-28T19:44:09.911Z,49.44
2023-03-28T19:46:38.788Z,50.31
2023-03-28T19:49:06.518Z,50.12
2023-03-28T19:51:33.982Z,50.54
2023-03-28T19:54:00.772Z,50.18
2023-03-28T19:56:28.551Z,50.89
2023-03-28T19:58:56.200Z,52.42
2023-03-28T20:01:22.819Z,51.32
2023-03-28T20:03:52.873Z,51.44
2023-03-28T20:06:20.826Z,51.93
2023-03-28T20:08:47.368Z,51.55
2023-03-28T20:11:14.398Z,52.44
2023-03-28T20:13:41.382Z,52.60
2023-03-28T20:16:09.261Z,53.41
2023-03-28T20:18:37.230Z,53.58
2023-03-28T20:21:10.427Z,54.26
2023-03-28T20:23:37.184Z,54.74
2023-03-28T20:26:20.480Z,53.86
2023-03-28T20:28:50.067Z,53.61
2023-03-28T20:31:18.664Z,54.21
2023-03-28T20:33:45.443Z,54.20
2023-03-28T20:36:12.288Z,53.96
2023-03-28T20:38:38.967Z,54.94
2023-03-28T20:41:09.600Z,54.05
2023-03-28T20:43:40.734Z,55.17
2023-03-28T20:46:09.778Z,54.53
2023-03-28T20:48:39.028Z,54.63
2023-03-28T20:51:17.421Z,54.61
2023-03-28T20:53:49.614Z,54.28
2023-03-28T20:56:20.167Z,53.92
2023-03-28T20:58:47.324Z,53.74
2023-03-28T21:01:14.811Z,53.64
2023-03-28T21:03:47.342Z,53.41
2023-03-28T21:06:15.898Z,53.62
2023-03-28T21:08:43.371Z,52.90
2023-03-28T21:11:09.856Z,53.02
2023-03-28T21:13:36.425Z,53.20
2023-03-28T21:16:02.970Z,53.97
2023-03-28T21:18:29.778Z,52.85
2023-03-28T21:20:56.672Z,52.37
2023-03-28T21:23:23.360Z,52.61
2023-03-28T21:25:52.847Z,52.57
2023-03-28T21:28:19.518Z,52.03
2023-03-28T21:30:56.110Z,51.61
2023-03-28T21:33:22.732Z,51.39
2023-03-28T21:35:52.889Z,52.03
2023-03-28T21:38:19.511Z,52.43
2023-03-28T21:40:46.930Z,52.33
2023-03-28T21:43:13.728Z,52.06
2023-03-28T21:45:42.990Z,52.44
2023-03-28T21:48:09.726Z,52.11
2023-03-28T21:50:38.838Z,51.78
2023-03-28T21:53:05.985Z,51.78
2023-03-28T21:55:32.486Z,51.42
2023-03-28T21:57:59.324Z,51.27
2023-03-28T22:00:25.986Z,52.61
2023-03-28T22:02:53.225Z,51.55
2023-03-28T22:05:28.648Z,52.25
2023-03-28T22:07:56.601Z,52.61
2023-03-28T22:10:26.683Z,52.65
2023-03-28T22:12:53.792Z,52.42
2023-03-28T22:15:20.400Z,52.84
2023-03-28T22:17:46.991Z,53.24
2023-03-28T22:20:14.429Z,51.85
2023-03-28T22:22:45.177Z,53.03
2023-03-28T22:25:12.713Z,53.34
2023-03-28T22:27:39.835Z,53.68
2023-03-28T22:30:10.383Z,53.31
2023-03-28T22:32:38.450Z,54.13
2023-03-28T22:35:05.999Z,53.45
2023-03-28T22:37:33.221Z,54.27
2023-03-28T22:39:59.798Z,54.78
2023-03-28T22:42:26.496Z,54.65
2023-03-28T22:44:53.066Z,54.02
2023-03-28T22:47:19.632Z,54.42
2023-03-28T22:49:46.197Z,55.37
2023-03-28T22:52:13.717Z,55.64
2023-03-28T22:54:42.680Z,55.79
2023-03-28T22:57:09.391Z,54.18
2023-03-28T22:59:36.655Z,54.22
2023-03-28T23:02:03.692Z,54.73
2023-03-28T23:04:30.394Z,54.95
2023-03-28T23:06:58.716Z,55.96
2023-03-28T23:09:27.715Z,56.14
2023-03-28T23:11:55.133Z,56.08
2023-03-28T23:14:22.219Z,55.59
2023-03-28T23:16:48.885Z,56.68
2023-03-28T23:19:16.426Z,56.33
2023-03-28T23:21:44.007Z,57.09
2023-03-28T23:24:11.892Z,56.88
2023-03-28T23:26:38.430Z,58.16
2023-03-28T23:29:05.415Z,58.24
2023-03-28T23:31:32.012Z,59.57
2023-03-28T23:33:58.576Z,60.33
2023-03-28T23:36:26.211Z,59.49
2023-03-28T23:39:00.873Z,58.99
2023-03-28T23:41:27.426Z,58.44
2023-03-28T23:43:53.919Z,58.54
2023-03-28T23:46:20.751Z,59.56
2023-03-28T23:48:47.381Z,61.22
2023-03-28T23:51:14.191Z,59.81
2023-03-28T23:53:41.016Z,59.88
2023-03-28T23:56:08.062Z,58.33
2023-03-28T23:58:34.585Z,58.30
